Share

Albury, New South Wales

Albury (YMAY) Elev 541 ft | 36.07 °S, 146.96 °E | Change Station

Current weather conditions updated 1 hour ago

Clear
Clear
59 °F
Feels Like 59 °F
N
7
Wind Variable Wind from SSE
Sunrise 6:39 AM
Sunset 5:42 PM
Moon Waning Gibbous

Today is forecast to be Cooler than yesterday.

Pressure 30.09 in
Visibility 6.2 miles
Clouds
Dew Point 39 °F
Humidity 48%
Rainfall 0.00 in
Snow Depth Not available.
UV Not available.
Pollen Not available.
Air Quality Not available.
Flu Activity Not available.
METAR YMAY 190200Z AUTO 15006KT 9999 // NCD 15/04 Q1019

More Conditions Fewer Conditions

Pressure 30.09 in
Visibility 6.2 miles
Clouds
Dew Point 39 °F
Humidity 48%
Rainfall 0.00 in
Snow Depth Not available.
UV Not available.
Pollen Not available.
Air Quality Not available.
Flu Activity Not available.
METAR YMAY 190200Z AUTO 15006KT 9999 // NCD 15/04 Q1019

More Conditions Fewer Conditions

10-Day Weather Forecast

Almanac

Astronomy

Apr. 19, 2014 Rise Set
Actual Time 6:39 AM EST 5:42 PM EST
Civil Twilight 6:13 AM EST 6:08 PM EST
Nautical Twilight 5:43 AM EST 6:38 PM EST
Astronomical Twilight 5:14 AM EST 7:08 PM EST
Moon 8:49 PM EST 10:18 AM EST
Length of Visible Light 11h 54m
Length of Day
11h 02m
Tomorrow will be 2m 5s shorter.
Waning Gibbous, 83% of the Moon is Illuminated
Apr 18
Waning Gibbous
Apr 22
Last Quarter
Apr 29
New
May 6
First Quarter
May 14
Full

Yesterday's Extremes

Country Highs Country Lows

Community

  • Sunset Silhouettes
    Sunset Silhouettes
  • FL sunset Perico Isle
    FL sunset Perico Isle
  • Cloudy spring view
    Cloudy spring view
  • Old barn
    Old barn
  • What's for Lunch?
    What's for Lunch?

WunderPhotos

Upload Photos

1,702,618 photos uploaded!

WunderBlogs® & News

Nearby

Snow Depth

Not available.

Coastal Water Temperatures

Place Temperature
No Stations Reporting

Earthquake Activity

City Distance Mag. Time & Date
No recent earthquake activity has been reported nearby.
Minimum magnitude displayed is 2.5.

Nearby Weather Stations

Station Location Temp. Dew Point Humidity Wind Precip. Elev Updated Type
Albury 63.1 °F 52 °F 67% WSW  at  3.1 mph 0.00 in / hr 650 ft 1:00 PM EST Normal
Albury/Wodonga, Lavington 58.3 °F 43 °F 57% SSE  at  6.3 mph - / hr 1050 ft 1:00 PM EST Normal
Wodonga Weather, Wodonga 66.6 °F 47 °F 49% NNW  at  5.9 mph 0.00 in / hr 541 ft 1:04 PM EST Rapid Fire
Federation Park, West Wodonga 62.6 °F 37 °F 38% West  at  2.0 mph 0.00 in / hr 646 ft 1:04 PM EST Rapid Fire
Wodonga, Wodonga 61.9 °F 45 °F 54% WSW  at  2.0 mph 0.00 in / hr 636 ft 1:00 PM EST Normal
Greater Hume Shire / Riverina, Brocklesby 61.9 °F 45 °F 54% West  at  0.0 mph 0.00 in / hr 581 ft 12:59 PM EST Normal

Show More Stations Show Fewer Stations

What do you think?

We're not finished. Please let us know what you like, what you don't like, and what you are still missing.